createdAt,value
2022-11-07T00:01:53.685Z,3.17
2022-11-07T00:04:21.600Z,3.40
2022-11-07T00:06:49.919Z,2.20
2022-11-07T00:09:19.327Z,3.93
2022-11-07T00:11:48.295Z,2.03
2022-11-07T00:14:18.219Z,2.20
2022-11-07T00:16:47.219Z,1.77
2022-11-07T00:19:17.175Z,2.13
2022-11-07T00:21:46.128Z,2.30
2022-11-07T00:24:15.087Z,2.30
2022-11-07T00:26:44.308Z,1.57
2022-11-07T00:29:14.346Z,2.17
2022-11-07T00:31:42.358Z,1.30
2022-11-07T00:34:10.626Z,2.03
2022-11-07T00:36:38.688Z,3.17
2022-11-07T00:39:07.439Z,1.27
2022-11-07T00:41:35.522Z,1.80
2022-11-07T00:44:04.957Z,1.27
2022-11-07T00:46:32.680Z,1.27
2022-11-07T00:49:00.701Z,2.17
2022-11-07T00:51:29.741Z,2.17
2022-11-07T00:53:58.090Z,1.47
2022-11-07T00:56:26.788Z,1.70
2022-11-07T00:58:56.612Z,1.03
2022-11-07T01:01:28.126Z,1.50
2022-11-07T01:06:57.919Z,1.30
2022-11-07T01:09:25.584Z,2.20
2022-11-07T01:11:54.137Z,2.10
2022-11-07T01:14:23.792Z,1.80
2022-11-07T01:16:53.526Z,1.23
2022-11-07T01:19:21.665Z,1.10
2022-11-07T01:21:50.446Z,1.10
2022-11-07T01:24:18.874Z,1.87
2022-11-07T01:26:48.116Z,1.53
2022-11-07T01:29:16.993Z,3.13
2022-11-07T01:31:44.653Z,2.30
2022-11-07T01:34:14.253Z,5.47
2022-11-07T01:36:41.943Z,2.23
2022-11-07T01:39:09.657Z,1.00
2022-11-07T01:41:39.337Z,2.70
2022-11-07T01:44:40.122Z,1.73
2022-11-07T01:47:08.677Z,2.50
2022-11-07T01:49:41.138Z,1.60
2022-11-07T01:52:12.888Z,1.03
2022-11-07T01:54:46.877Z,1.10
2022-11-07T01:57:20.359Z,1.00
2022-11-07T01:59:49.205Z,1.43
2022-11-07T02:02:17.011Z,1.83
2022-11-07T02:04:47.782Z,1.33
2022-11-07T02:07:19.875Z,0.90
2022-11-07T02:09:50.043Z,1.20
2022-11-07T02:12:19.418Z,0.97
2022-11-07T02:14:47.636Z,3.40
2022-11-07T02:17:17.520Z,1.00
2022-11-07T02:19:49.378Z,1.27
2022-11-07T02:22:24.858Z,1.03
2022-11-07T02:24:58.424Z,1.37
2022-11-07T02:27:29.507Z,2.10
2022-11-07T02:30:01.562Z,1.43
2022-11-07T02:32:29.239Z,2.10
2022-11-07T02:34:58.202Z,4.90
2022-11-07T02:37:30.157Z,2.03
2022-11-07T02:40:02.440Z,2.23
2022-11-07T02:42:43.354Z,2.70
2022-11-07T02:45:15.569Z,3.33
2022-11-07T02:47:43.676Z,2.77
2022-11-07T02:50:13.707Z,4.10
2022-11-07T02:52:41.924Z,1.60
2022-11-07T02:55:13.397Z,1.60
2022-11-07T02:57:42.301Z,3.50
2022-11-07T03:00:13.075Z,2.50
2022-11-07T03:02:47.560Z,2.63
2022-11-07T03:05:17.860Z,3.20
2022-11-07T03:07:48.758Z,1.97
2022-11-07T03:10:18.915Z,2.67
2022-11-07T03:12:47.060Z,5.00
2022-11-07T03:15:15.850Z,1.83
2022-11-07T03:17:43.723Z,2.17
2022-11-07T03:20:12.856Z,3.00
2022-11-07T03:22:41.260Z,2.83
2022-11-07T03:25:09.590Z,2.43
2022-11-07T03:27:47.433Z,2.60
2022-11-07T03:30:16.588Z,2.90
2022-11-07T03:32:44.921Z,2.17
2022-11-07T03:35:13.362Z,3.10
2022-11-07T03:37:41.660Z,5.80
2022-11-07T03:40:10.454Z,1.90
2022-11-07T03:42:41.062Z,2.70
2022-11-07T03:45:11.047Z,2.87
2022-11-07T03:47:40.367Z,1.70
2022-11-07T03:50:11.266Z,4.47
2022-11-07T03:52:39.132Z,3.80
2022-11-07T03:55:07.927Z,2.20
2022-11-07T03:57:35.693Z,3.90
2022-11-07T04:00:08.585Z,4.67
2022-11-07T04:02:42.867Z,3.50
2022-11-07T04:05:12.522Z,5.77
2022-11-07T04:07:40.216Z,5.07
2022-11-07T04:10:08.898Z,2.70
2022-11-07T04:12:54.040Z,4.33
2022-11-07T04:15:41.977Z,2.50
2022-11-07T04:18:09.717Z,4.28
2022-11-07T04:20:37.932Z,3.50
2022-11-07T04:23:05.903Z,2.47
2022-11-07T04:25:51.060Z,3.63
2022-11-07T04:28:19.087Z,2.60
2022-11-07T04:30:48.198Z,4.63
2022-11-07T04:33:16.630Z,2.83
2022-11-07T04:35:44.788Z,2.40
2022-11-07T04:38:12.475Z,2.80
2022-11-07T04:40:40.714Z,3.10
2022-11-07T04:43:09.883Z,3.77
2022-11-07T04:45:38.618Z,3.53
2022-11-07T04:48:08.500Z,1.80
2022-11-07T04:50:36.910Z,3.77
2022-11-07T04:53:05.900Z,2.30
2022-11-07T04:55:34.694Z,1.80
2022-11-07T04:58:03.547Z,4.40
2022-11-07T05:00:31.340Z,2.30
2022-11-07T05:02:59.024Z,3.50
2022-11-07T05:05:28.945Z,5.40
2022-11-07T05:07:56.876Z,7.23
2022-11-07T05:10:27.315Z,2.73
2022-11-07T05:12:56.436Z,4.03
2022-11-07T05:15:25.575Z,3.73
2022-11-07T05:17:53.177Z,5.50
2022-11-07T05:20:38.584Z,4.20
2022-11-07T05:23:19.174Z,6.17
2022-11-07T05:25:49.354Z,3.90
2022-11-07T05:28:25.719Z,3.47
2022-11-07T05:31:00.411Z,8.70
2022-11-07T05:33:28.962Z,2.40
2022-11-07T05:35:59.584Z,4.00
2022-11-07T05:38:27.795Z,4.57
2022-11-07T05:40:55.490Z,3.13
2022-11-07T05:43:23.523Z,3.77
2022-11-07T05:45:52.872Z,3.67
2022-11-07T05:48:21.531Z,5.27
2022-11-07T05:50:50.693Z,4.70
2022-11-07T05:53:21.420Z,4.37
2022-11-07T05:55:49.652Z,3.83
2022-11-07T05:58:18.012Z,2.80
2022-11-07T06:00:46.514Z,4.03
2022-11-07T06:03:15.913Z,3.40
2022-11-07T06:05:44.396Z,5.60
2022-11-07T06:08:14.651Z,6.70
2022-11-07T06:10:45.725Z,4.40
2022-11-07T06:13:17.115Z,5.07
2022-11-07T06:15:46.625Z,5.10
2022-11-07T06:18:17.123Z,6.37
2022-11-07T06:20:45.507Z,3.13
2022-11-07T06:23:14.624Z,5.93
2022-11-07T06:25:44.146Z,6.03
2022-11-07T06:28:14.494Z,8.67
2022-11-07T06:30:45.141Z,9.40
2022-11-07T06:33:16.282Z,5.70
2022-11-07T06:35:45.333Z,4.23
2022-11-07T06:38:15.717Z,10.50
2022-11-07T06:40:44.989Z,6.40
2022-11-07T06:43:15.695Z,11.53
2022-11-07T06:45:45.063Z,14.50
2022-11-07T06:48:13.582Z,18.13
2022-11-07T06:50:42.826Z,15.30
2022-11-07T06:53:13.948Z,13.70
2022-11-07T06:55:41.970Z,7.40
2022-11-07T06:58:11.578Z,8.30
2022-11-07T07:00:39.282Z,8.50
2022-11-07T07:03:07.819Z,7.67
2022-11-07T07:05:36.671Z,10.63
2022-11-07T07:08:08.138Z,11.20
2022-11-07T07:10:41.616Z,16.10
2022-11-07T07:13:11.703Z,6.67
2022-11-07T07:15:50.421Z,5.90
2022-11-07T07:18:19.600Z,7.90
2022-11-07T07:20:48.507Z,7.93
2022-11-07T07:23:17.179Z,6.70
2022-11-07T07:25:45.027Z,5.20
2022-11-07T07:28:14.672Z,4.83
2022-11-07T07:30:47.327Z,4.33
2022-11-07T07:33:19.332Z,7.27
2022-11-07T07:35:47.125Z,8.03
2022-11-07T07:38:15.205Z,6.17
2022-11-07T07:40:43.138Z,6.60
2022-11-07T07:43:10.947Z,6.20
2022-11-07T07:45:40.277Z,6.17
2022-11-07T07:48:09.206Z,9.50
2022-11-07T07:50:37.305Z,9.50
2022-11-07T07:53:09.098Z,7.50
2022-11-07T07:55:37.675Z,7.10
2022-11-07T07:58:05.372Z,6.27
2022-11-07T08:00:33.497Z,9.20
2022-11-07T08:03:04.326Z,5.80
2022-11-07T08:05:32.512Z,10.70
2022-11-07T08:08:00.476Z,8.13
2022-11-07T08:10:41.560Z,6.77
2022-11-07T08:13:10.797Z,7.63
2022-11-07T08:15:39.477Z,12.87
2022-11-07T08:18:08.644Z,10.27
2022-11-07T08:20:36.569Z,12.03
2022-11-07T08:23:14.628Z,13.80
2022-11-07T08:25:50.203Z,10.57
2022-11-07T08:28:17.958Z,8.77
2022-11-07T08:30:46.277Z,9.00
2022-11-07T08:33:15.746Z,12.47
2022-11-07T08:35:44.088Z,8.87
2022-11-07T08:38:12.325Z,6.00
2022-11-07T08:40:40.955Z,7.53
2022-11-07T08:43:08.724Z,7.40
2022-11-07T08:45:37.123Z,6.87
2022-11-07T08:48:05.326Z,7.00
2022-11-07T08:50:35.098Z,6.20
2022-11-07T08:53:03.494Z,5.90
2022-11-07T08:55:31.561Z,7.00
2022-11-07T08:58:00.415Z,6.70
2022-11-07T09:00:28.396Z,8.47
2022-11-07T09:03:30.749Z,5.63
2022-11-07T09:05:46.139Z,6.23
2022-11-07T09:08:14.248Z,5.77
2022-11-07T09:10:42.050Z,6.00
2022-11-07T09:13:10.057Z,5.20
2022-11-07T09:15:37.786Z,4.17
2022-11-07T09:18:07.876Z,5.17
2022-11-07T09:20:36.392Z,5.23
2022-11-07T09:23:05.589Z,2.33
2022-11-07T09:25:33.343Z,3.27
2022-11-07T09:28:03.955Z,2.63
2022-11-07T09:30:32.241Z,3.83
2022-11-07T09:33:01.113Z,2.63
2022-11-07T09:35:28.747Z,1.90
2022-11-07T09:37:57.558Z,4.03
2022-11-07T09:40:43.187Z,1.50
2022-11-07T09:43:32.016Z,2.23
2022-11-07T09:46:09.666Z,2.30
2022-11-07T09:48:44.718Z,4.60
2022-11-07T09:51:16.940Z,5.77
2022-11-07T09:53:51.794Z,1.67
2022-11-07T09:56:20.819Z,2.47
2022-11-07T09:58:54.415Z,3.43
2022-11-07T10:01:23.359Z,5.60
2022-11-07T10:04:22.829Z,1.33
2022-11-07T10:06:45.508Z,3.67
2022-11-07T10:09:20.012Z,3.17
2022-11-07T10:11:59.114Z,2.17
2022-11-07T10:14:37.338Z,1.90
2022-11-07T10:17:14.336Z,2.73
2022-11-07T10:19:51.536Z,2.67
2022-11-07T10:22:32.492Z,2.73
2022-11-07T10:25:16.644Z,4.73
2022-11-07T10:27:52.702Z,4.30
2022-11-07T10:30:22.570Z,1.83
2022-11-07T10:32:59.040Z,6.80
2022-11-07T10:35:31.260Z,2.87
2022-11-07T10:38:00.903Z,3.30
2022-11-07T10:40:36.845Z,3.93
2022-11-07T10:43:10.648Z,2.73
2022-11-07T10:45:40.574Z,3.80
2022-11-07T10:48:08.742Z,5.33
2022-11-07T10:50:36.470Z,5.60
2022-11-07T10:53:09.944Z,5.47
2022-11-07T10:55:45.260Z,10.87
2022-11-07T10:58:21.187Z,5.50
2022-11-07T11:01:07.796Z,5.37
2022-11-07T11:03:44.668Z,4.00
2022-11-07T11:06:22.297Z,6.30
2022-11-07T11:08:52.507Z,2.40
2022-11-07T11:11:29.738Z,4.80
2022-11-07T11:14:12.894Z,3.40
2022-11-07T11:16:43.035Z,5.07
2022-11-07T11:19:22.466Z,1.90
2022-11-07T11:21:53.053Z,2.17
2022-11-07T11:24:31.847Z,1.83
2022-11-07T11:27:04.677Z,2.57
2022-11-07T11:29:41.433Z,3.50
2022-11-07T11:32:17.959Z,2.80
2022-11-07T11:34:55.152Z,1.40
2022-11-07T11:37:25.824Z,4.03
2022-11-07T11:40:14.248Z,1.67
2022-11-07T11:42:49.757Z,3.80
2022-11-07T11:45:25.716Z,3.30
2022-11-07T11:48:00.941Z,1.60
2022-11-07T11:50:39.644Z,2.77
2022-11-07T11:53:15.763Z,2.43
2022-11-07T11:55:52.653Z,4.00
2022-11-07T11:58:38.670Z,2.90
2022-11-07T12:01:17.871Z,3.57
2022-11-07T12:03:56.953Z,2.53
2022-11-07T12:06:31.755Z,3.13
2022-11-07T12:09:28.370Z,1.47
2022-11-07T12:12:18.314Z,3.20
2022-11-07T12:15:01.706Z,1.50
2022-11-07T12:17:42.029Z,2.97
2022-11-07T12:20:20.836Z,1.50
2022-11-07T12:22:59.690Z,3.63
2022-11-07T12:25:32.292Z,2.07
2022-11-07T12:28:11.797Z,1.43
2022-11-07T12:30:52.534Z,3.03
2022-11-07T12:33:33.378Z,3.97
2022-11-07T12:36:04.500Z,1.30
2022-11-07T12:38:58.089Z,2.23
2022-11-07T12:41:38.655Z,3.37
2022-11-07T12:44:18.932Z,2.10
2022-11-07T12:46:52.345Z,2.13
2022-11-07T12:49:46.656Z,1.30
2022-11-07T12:52:27.809Z,5.30
2022-11-07T12:55:01.962Z,3.17
2022-11-07T12:58:19.864Z,1.20
2022-11-07T13:00:50.211Z,1.03
2022-11-07T13:03:51.137Z,1.93
2022-11-07T13:06:27.409Z,1.73
2022-11-07T13:09:05.507Z,1.10
2022-11-07T13:11:43.403Z,3.03
2022-11-07T13:14:24.596Z,2.10
2022-11-07T13:17:13.073Z,1.70
2022-11-07T13:19:42.948Z,1.33
2022-11-07T13:22:25.410Z,1.57
2022-11-07T13:24:58.367Z,1.83
2022-11-07T13:35:55.465Z,2.07
2022-11-07T13:38:26.467Z,5.07
2022-11-07T13:40:59.241Z,6.30
2022-11-07T13:43:31.390Z,1.47
2022-11-07T13:46:02.231Z,2.57
2022-11-07T13:48:37.131Z,2.70
2022-11-07T13:51:11.684Z,1.77
2022-11-07T13:53:56.791Z,2.03
2022-11-07T13:56:30.965Z,2.60
2022-11-07T13:59:00.872Z,2.30
2022-11-07T14:01:28.703Z,0.80
2022-11-07T14:03:56.870Z,2.27
2022-11-07T14:06:25.158Z,3.10
2022-11-07T14:08:54.388Z,1.20
2022-11-07T14:11:24.259Z,3.23
2022-11-07T14:17:58.075Z,1.10
2022-11-07T14:24:41.320Z,1.90
2022-11-07T14:27:15.388Z,2.10
2022-11-07T14:29:52.319Z,1.57
2022-11-07T14:32:20.381Z,2.83
2022-11-07T14:34:50.707Z,4.80
2022-11-07T14:37:21.010Z,1.80
2022-11-07T14:39:51.503Z,4.67
2022-11-07T14:42:23.117Z,3.87
2022-11-07T14:44:56.343Z,2.13
2022-11-07T14:47:26.727Z,1.00
2022-11-07T14:49:55.591Z,1.80
2022-11-07T14:52:27.886Z,3.73
2022-11-07T14:55:03.090Z,1.53
2022-11-07T15:05:51.461Z,1.87
2022-11-07T15:08:28.292Z,3.40
2022-11-07T15:11:23.231Z,1.70
2022-11-07T15:13:51.462Z,1.27
2022-11-07T15:16:21.836Z,1.83
2022-11-07T15:18:58.327Z,1.13
2022-11-07T15:21:31.543Z,2.23
2022-11-07T15:24:01.723Z,2.30
2022-11-07T15:26:35.117Z,5.07
2022-11-07T15:29:15.932Z,4.97
2022-11-07T15:31:48.565Z,2.57
2022-11-07T15:34:33.711Z,3.17
2022-11-07T15:37:11.740Z,5.27
2022-11-07T15:39:39.350Z,4.53
2022-11-07T15:42:08.416Z,2.93
2022-11-07T15:44:36.582Z,2.70
2022-11-07T15:47:07.717Z,4.73
2022-11-07T15:49:37.100Z,2.10
2022-11-07T15:52:05.319Z,2.73
2022-11-07T15:54:33.800Z,4.03
2022-11-07T15:57:04.796Z,1.60
2022-11-07T15:59:36.995Z,2.10
2022-11-07T16:02:05.701Z,1.80
2022-11-07T16:04:39.336Z,3.87
2022-11-07T16:07:12.613Z,3.80
2022-11-07T16:09:40.488Z,6.30
2022-11-07T16:12:10.602Z,3.97
2022-11-07T16:14:44.627Z,2.80
2022-11-07T16:17:15.589Z,3.17
2022-11-07T16:19:43.503Z,8.00
2022-11-07T16:22:12.594Z,3.53
2022-11-07T16:24:40.569Z,3.73
2022-11-07T16:27:12.052Z,3.37
2022-11-07T16:29:44.295Z,6.70
2022-11-07T16:32:18.078Z,5.27
2022-11-07T16:34:46.547Z,10.33
2022-11-07T16:37:14.634Z,7.83
2022-11-07T16:39:42.771Z,10.00
2022-11-07T16:42:14.770Z,12.40
2022-11-07T16:44:44.008Z,19.83
2022-11-07T16:47:15.852Z,14.63
2022-11-07T16:49:44.282Z,5.77
2022-11-07T16:52:15.335Z,4.27
2022-11-07T16:54:46.228Z,3.10
2022-11-07T16:57:15.790Z,2.27
2022-11-07T16:59:46.627Z,2.87
2022-11-07T17:02:21.148Z,2.27
2022-11-07T17:04:49.957Z,1.97
2022-11-07T17:07:19.868Z,3.30
2022-11-07T17:09:50.580Z,3.20
2022-11-07T17:12:21.346Z,1.63
2022-11-07T17:14:53.020Z,2.70
2022-11-07T17:17:21.271Z,2.60
2022-11-07T17:19:49.602Z,2.53
2022-11-07T17:22:18.261Z,2.50
2022-11-07T17:24:46.089Z,3.50
2022-11-07T17:27:21.417Z,7.70
2022-11-07T17:29:49.636Z,14.60
2022-11-07T17:32:19.221Z,12.87
2022-11-07T17:34:59.232Z,6.17
2022-11-07T17:37:36.816Z,5.47
2022-11-07T17:40:05.947Z,4.63
2022-11-07T17:42:37.993Z,4.13
2022-11-07T17:45:08.573Z,6.47
2022-11-07T17:47:37.775Z,7.40
2022-11-07T17:50:06.607Z,8.73
2022-11-07T17:52:34.355Z,8.03
2022-11-07T17:55:02.441Z,5.40
2022-11-07T17:57:31.858Z,4.87
2022-11-07T17:59:59.597Z,5.27
2022-11-07T18:02:27.412Z,4.60
2022-11-07T18:04:56.664Z,3.93
2022-11-07T18:07:24.438Z,5.87
2022-11-07T18:09:53.083Z,6.10
2022-11-07T18:12:20.715Z,10.20
2022-11-07T18:14:49.373Z,8.03
2022-11-07T18:17:17.045Z,7.50
2022-11-07T18:19:44.700Z,7.50
2022-11-07T18:22:13.722Z,6.67
2022-11-07T18:24:41.680Z,5.73
2022-11-07T18:27:10.653Z,8.73
2022-11-07T18:29:40.053Z,11.70
2022-11-07T18:32:07.814Z,6.30
2022-11-07T18:34:36.035Z,6.97
2022-11-07T18:37:03.745Z,12.70
2022-11-07T18:39:33.377Z,11.53
2022-11-07T18:42:01.134Z,10.00
2022-11-07T18:44:29.284Z,10.50
2022-11-07T18:46:57.279Z,11.60
2022-11-07T18:49:25.423Z,12.30
2022-11-07T18:51:53.068Z,10.57
2022-11-07T18:54:22.523Z,11.13
2022-11-07T18:56:51.721Z,12.37
2022-11-07T18:59:19.345Z,11.77
2022-11-07T19:01:47.724Z,14.73
2022-11-07T19:04:16.039Z,10.23
2022-11-07T19:06:57.143Z,15.30
2022-11-07T19:09:27.806Z,6.87
2022-11-07T19:11:57.721Z,10.97
2022-11-07T19:14:26.289Z,6.47
2022-11-07T19:16:55.415Z,8.20
2022-11-07T19:19:23.812Z,7.33
2022-11-07T19:21:51.500Z,9.20
2022-11-07T19:24:19.725Z,11.77
2022-11-07T19:26:47.816Z,10.93
2022-11-07T19:29:17.196Z,6.60
2022-11-07T19:31:44.943Z,5.83
2022-11-07T19:34:14.100Z,5.83
2022-11-07T19:36:43.045Z,3.60
2022-11-07T19:39:11.107Z,5.50
2022-11-07T19:41:38.898Z,9.33
2022-11-07T19:44:07.483Z,6.20
2022-11-07T19:46:36.768Z,6.50
2022-11-07T19:49:04.681Z,9.47
2022-11-07T19:51:32.592Z,7.60
2022-11-07T19:54:01.402Z,9.57
2022-11-07T19:56:30.885Z,6.73
2022-11-07T19:59:00.280Z,5.30
2022-11-07T20:01:31.459Z,5.00
2022-11-07T20:04:02.175Z,5.17
2022-11-07T20:06:35.406Z,4.33
2022-11-07T20:09:04.439Z,6.70
2022-11-07T20:11:33.081Z,9.53
2022-11-07T20:14:03.790Z,5.03
2022-11-07T20:16:32.743Z,8.90
2022-11-07T20:19:03.191Z,6.30
2022-11-07T20:21:32.514Z,8.83
2022-11-07T20:24:00.506Z,6.43
2022-11-07T20:26:31.670Z,7.93
2022-11-07T20:29:00.286Z,7.10
2022-11-07T20:31:30.243Z,8.20
2022-11-07T20:33:58.881Z,11.47
2022-11-07T20:36:28.772Z,7.80
2022-11-07T20:38:57.069Z,8.73
2022-11-07T20:41:27.303Z,9.90
2022-11-07T20:43:55.620Z,14.70
2022-11-07T20:46:24.409Z,9.00
2022-11-07T20:48:54.705Z,7.10
2022-11-07T20:51:25.170Z,13.20
2022-11-07T20:53:55.946Z,9.70
2022-11-07T20:56:25.433Z,14.27
2022-11-07T20:58:53.971Z,13.70
2022-11-07T21:01:24.571Z,6.70
2022-11-07T21:03:53.094Z,10.63
2022-11-07T21:06:22.589Z,9.73
2022-11-07T21:08:50.666Z,8.03
2022-11-07T21:11:19.904Z,9.10
2022-11-07T21:13:52.622Z,7.57
2022-11-07T21:16:22.236Z,8.27
2022-11-07T21:18:50.390Z,11.93
2022-11-07T21:21:20.454Z,7.13
2022-11-07T21:23:49.343Z,9.87
2022-11-07T21:26:20.435Z,13.60
2022-11-07T21:28:49.552Z,16.00
2022-11-07T21:31:22.165Z,14.70
2022-11-07T21:33:49.824Z,12.40
2022-11-07T21:36:20.195Z,14.63
2022-11-07T21:38:48.072Z,12.50
2022-11-07T21:41:19.562Z,10.67
2022-11-07T21:43:47.808Z,7.37
2022-11-07T21:46:18.044Z,9.67
2022-11-07T21:48:46.921Z,9.87
2022-11-07T21:51:18.249Z,13.40
2022-11-07T21:53:46.733Z,13.73
2022-11-07T21:56:17.621Z,11.20
2022-11-07T21:58:46.770Z,9.93
2022-11-07T22:01:14.895Z,9.93
2022-11-07T22:06:34.021Z,12.17
2022-11-07T22:09:02.314Z,8.60
2022-11-07T22:11:29.976Z,8.10
2022-11-07T22:13:59.184Z,8.00
2022-11-07T22:16:26.955Z,9.43
2022-11-07T22:18:55.275Z,10.00
2022-11-07T22:21:24.986Z,8.90
2022-11-07T22:23:52.843Z,11.13
2022-11-07T22:26:24.121Z,15.70
2022-11-07T22:28:52.953Z,11.23
2022-11-07T22:31:24.520Z,8.97
2022-11-07T22:33:53.663Z,11.07
2022-11-07T22:36:30.279Z,12.67
2022-11-07T22:39:00.122Z,13.03
2022-11-07T22:41:30.100Z,8.37
2022-11-07T22:43:59.578Z,16.20
2022-11-07T22:46:32.276Z,10.87
2022-11-07T22:49:01.836Z,10.40
2022-11-07T22:51:31.610Z,8.30
2022-11-07T22:54:02.222Z,10.30
2022-11-07T22:56:31.540Z,12.63
2022-11-07T22:59:00.413Z,12.00
2022-11-07T23:01:32.322Z,14.90
2022-11-07T23:04:01.465Z,12.90
2022-11-07T23:06:30.651Z,16.97
2022-11-07T23:09:00.100Z,14.30
2022-11-07T23:11:47.880Z,21.50
2022-11-07T23:14:18.618Z,20.67
2022-11-07T23:16:49.714Z,14.87
2022-11-07T23:19:20.927Z,20.50
2022-11-07T23:21:49.403Z,12.27
2022-11-07T23:24:18.361Z,10.47
2022-11-07T23:26:46.785Z,15.23
2022-11-07T23:29:16.186Z,17.23
2022-11-07T23:31:46.826Z,15.00
2022-11-07T23:34:16.501Z,13.13
2022-11-07T23:36:45.457Z,17.93
2022-11-07T23:39:15.948Z,8.00
2022-11-07T23:41:44.253Z,13.13
2022-11-07T23:44:12.756Z,10.73
2022-11-07T23:46:58.343Z,11.40
2022-11-07T23:49:45.427Z,8.77
2022-11-07T23:52:13.410Z,10.57
2022-11-07T23:54:58.386Z,7.50
2022-11-07T23:57:26.784Z,8.03
